Portada
METAR-TAF:

METAR-TAF

Aeroports :

Aeroport Internacional de Da Nang

Da Nang, Vietnam

latitud: 16-02N, longitud: 108-11E, altitud: 7 m

Observació

L'informe es va fer fa 43 minuts, a les 21:30 UTC
Vent 1 kt amb direcció variable
Temperatura 20°C
Humitat 88%
Pressió 1017 hPa
Visibilitat: 6000 m
Escasses núvols a una alçada de 1500 ft
Cel ennuvolat a una alçada de 5000 ft

METAR: VVDN 112130Z VRB01KT 6000 FEW015 BKN050 20/18 Q1017 NOSIG

Hora: 05:13 (22:13 UTC)

Pronòstic

L'informe es va fer fa 5 hores i 13 minuts, a les 17:00 UTC
Pronòstic vàlid del 11 a les 18 UTC al 12 a les 18 UTC
Vent 4 kt del Oest/Sud-Oest
Visibilitat: 6000 m
Escasses núvols a una alçada de 1500 ft
Cel ennuvolat a una alçada de 6000 ft
Evolucionant progressivament
l' 11 a les 19 UTC al 11 a les 20 UTC
Visibilitat: 3500 m
boirina
Evolucionant progressivament
l' 12 a les 00 UTC al 12 a les 01 UTC
Visibilitat: 6000 m

TAF: VVDN 111700Z 1118/1218 24004KT 6000 FEW015 BKN060 BECMG 1119/1120 3500 BR BECMG 1200/1201 6000 NSW

Observacions i pronòstics meteorològics de més de 4000 aeroports (METAR i TAF).

Les estacions disponibles són els punts grocs i vermells al mapa.

Posi el ratolí al punt desitjat per veure el nom de l'estació.

Feu clic per veure les observacions i els pronòstics meteorològics.

Per canviar el mapa: feu clic els botons verds amb una creu de color negre per apropar; al botó verd amb un guió per allunyar la imatge; o en les fletxes verdes per a mapes adjacents.


METAR-TAF: